Terminal Aerodrome Forecast
Issued by NWS

Home | Current Version | Previous Version | Text Only | Print | Product List | Glossary On
Versions: 1 2 3 4 5 6 7 8 9 10 11 12 13 14 15 16 17 18 19
910
FTUS46 KLOX 031741
TAFSBA
TAF
KSBA 031741Z 0318/0418 22007KT P6SM SKC
     FM031900 24012KT P6SM BKN200
     FM040300 VRB03KT P6SM BKN200
     FM040800 09005KT P6SM OVC015=

USA.gov is the U.S. government's official web portal to all federal, state and local government web resources and services.